Time;durP1;ratioP1;P1;durP2;ratioP2;P2;SDS_P1;SDS_P2;PMS_P1;PMS_P2;Temp;Humidity;BMP_temperature;BMP_pressure;BME280_temperature;BME280_humidity;BME280_pressure;Samples;Min_cycle;Max_cycle;Signal;HPM_P1;HPM_P2
2022/11/21 00:01:22;;;;;;;36.30;18.02;;;;;;;-1.41;100.00;97131.63;4202431;28;20076;-73
2022/11/21 00:03:23;;;;;;;30.40;15.77;;;;;;;-1.42;100.00;97132.75;4202939;28;20051;-73
2022/11/21 00:05:23;;;;;;;30.27;14.13;;;;;;;-1.41;100.00;97123.50;4202129;28;20036;-73
2022/11/21 00:07:24;;;;;;;23.35;13.75;;;;;;;-1.43;100.00;97118.41;4202372;28;20376;-73
2022/11/21 00:09:24;;;;;;;29.20;14.68;;;;;;;-1.42;100.00;97113.78;4202571;28;20499;-73
2022/11/21 00:11:24;;;;;;;22.95;13.27;;;;;;;-1.41;100.00;97109.94;4202185;28;20068;-73
2022/11/21 00:13:24;;;;;;;25.10;13.48;;;;;;;-1.43;100.00;97114.91;4201825;28;20451;-73
2022/11/21 00:15:25;;;;;;;28.02;13.30;;;;;;;-1.40;100.00;97100.69;4201879;28;20109;-73
2022/11/21 00:17:26;;;;;;;27.60;12.88;;;;;;;-1.36;100.00;97100.81;4202577;28;20051;-73
2022/11/21 00:19:26;;;;;;;23.15;12.93;;;;;;;-1.36;100.00;97095.38;4184086;28;20099;-73
2022/11/21 00:21:26;;;;;;;25.58;13.18;;;;;;;-1.34;100.00;97091.19;4202189;28;20078;-73
2022/11/21 00:23:28;;;;;;;25.20;13.57;;;;;;;-1.32;100.00;97088.16;4201930;28;20481;-73
2022/11/21 00:25:29;;;;;;;23.10;12.07;;;;;;;-1.33;100.00;97089.28;4202392;28;20044;-73
2022/11/21 00:27:29;;;;;;;23.83;11.93;;;;;;;-1.36;100.00;97079.88;4202545;28;21095;-74
2022/11/21 00:29:29;;;;;;;21.40;11.18;;;;;;;-1.34;100.00;97088.47;4201566;28;20219;-73
2022/11/21 00:31:30;;;;;;;23.42;11.00;;;;;;;-1.33;100.00;97075.72;4205284;28;20047;-73
2022/11/21 00:33:31;;;;;;;24.10;12.15;;;;;;;-1.35;100.00;97081.47;4204270;28;20482;-73
2022/11/21 00:35:31;;;;;;;20.05;10.65;;;;;;;-1.33;100.00;97081.13;4205151;28;20060;-73
2022/11/21 00:37:32;;;;;;;17.75;9.40;;;;;;;-1.32;100.00;97086.25;4205744;28;20091;-73
2022/11/21 00:39:33;;;;;;;18.17;9.32;;;;;;;-1.33;100.00;97079.22;4205174;28;20051;-73
2022/11/21 00:41:33;;;;;;;17.23;9.82;;;;;;;-1.33;100.00;97073.78;4205233;28;20044;-73
2022/11/21 00:43:34;;;;;;;20.63;10.13;;;;;;;-1.32;100.00;97080.03;4205027;28;20325;-73
2022/11/21 00:45:34;;;;;;;17.75;9.38;;;;;;;-1.38;100.00;97065.88;4205089;28;20391;-74
2022/11/21 00:47:34;;;;;;;20.67;10.23;;;;;;;-1.38;100.00;97068.59;4205381;28;20063;-73
2022/11/21 00:49:35;;;;;;;14.35;8.02;;;;;;;-1.31;100.00;97068.06;4204718;28;20040;-73
2022/11/21 00:51:35;;;;;;;17.13;8.48;;;;;;;-1.29;100.00;97065.78;4204951;28;20139;-73
2022/11/21 00:53:35;;;;;;;15.23;7.97;;;;;;;-1.26;100.00;97067.81;4204524;28;20074;-74
2022/11/21 00:55:36;;;;;;;17.20;8.48;;;;;;;-1.18;100.00;97064.22;4204617;28;20044;-73
2022/11/21 00:57:36;;;;;;;14.25;8.30;;;;;;;-1.14;100.00;97051.59;4205298;28;20390;-73
2022/11/21 00:59:36;;;;;;;13.27;7.03;;;;;;;-1.08;100.00;97050.22;4204618;28;20072;-73
2022/11/21 01:01:37;;;;;;;12.93;6.20;;;;;;;-1.04;100.00;97047.63;4205085;28;20056;-73
2022/11/21 01:03:37;;;;;;;12.30;6.80;;;;;;;-0.99;100.00;97052.84;4203946;28;20047;-74
2022/11/21 01:05:38;;;;;;;11.43;5.88;;;;;;;-0.96;100.00;97049.47;4204526;28;20075;-73
2022/11/21 01:07:38;;;;;;;7.95;4.20;;;;;;;-0.90;100.00;97045.41;4205190;28;20093;-73
2022/11/21 01:09:38;;;;;;;7.38;4.45;;;;;;;-0.83;100.00;97037.47;4204297;28;20443;-73
2022/11/21 01:11:39;;;;;;;7.38;4.20;;;;;;;-0.72;100.00;97045.97;4204405;28;20056;-73
2022/11/21 01:13:40;;;;;;;4.70;2.30;;;;;;;-0.53;100.00;97038.03;4204244;28;20480;-74
2022/11/21 01:15:40;;;;;;;4.47;2.80;;;;;;;-0.47;100.00;97035.91;4204659;28;20052;-74
2022/11/21 01:17:41;;;;;;;4.05;2.50;;;;;;;-0.41;100.00;97034.53;4205018;28;20051;-74
2022/11/21 01:19:41;;;;;;;2.53;2.00;;;;;;;-0.18;100.00;97042.97;4204084;28;20051;-73
2022/11/21 01:21:42;;;;;;;3.33;2.17;;;;;;;-0.07;100.00;97033.22;4205332;28;20054;-73
2022/11/21 01:23:42;;;;;;;5.82;2.75;;;;;;;-0.09;100.00;97032.75;4203921;28;20048;-73
2022/11/21 01:25:43;;;;;;;2.45;1.88;;;;;;;-0.10;100.00;97036.63;4205015;28;20048;-73
2022/11/21 01:27:43;;;;;;;4.10;1.70;;;;;;;0.07;100.00;97030.91;4204885;28;20043;-73
2022/11/21 01:29:43;;;;;;;3.85;1.70;;;;;;;0.19;100.00;97032.81;4204109;28;20059;-73
2022/11/21 01:31:44;;;;;;;2.47;1.80;;;;;;;0.25;100.00;97034.94;4204508;28;20162;-73
2022/11/21 01:33:45;;;;;;;3.45;1.77;;;;;;;0.29;100.00;97032.31;4203306;28;20568;-73
2022/11/21 01:35:45;;;;;;;3.33;1.77;;;;;;;0.29;100.00;97032.31;4203501;28;20048;-73
2022/11/21 01:37:47;;;;;;;2.10;1.50;;;;;;;0.39;100.00;97036.47;4205690;28;20080;-73
2022/11/21 01:39:47;;;;;;;2.40;1.67;;;;;;;0.47;100.00;97030.88;4203582;28;20044;-73
2022/11/21 01:41:47;;;;;;;2.70;1.50;;;;;;;0.49;100.00;97027.78;4203477;28;20111;-73
2022/11/21 01:43:49;;;;;;;2.53;1.50;;;;;;;0.36;100.00;97029.00;4203027;28;20548;-74
2022/11/21 01:45:53;;;;;;;3.10;1.60;;;;;;;0.43;100.00;97031.94;4203889;28;20036;-73
2022/11/21 01:47:54;;;;;;;2.58;1.40;;;;;;;0.43;100.00;97031.94;4203744;28;20418;-73
2022/11/21 01:49:55;;;;;;;1.95;1.40;;;;;;;0.42;100.00;97024.91;4203479;28;20040;-73
2022/11/21 01:52:03;;;;;;;1.83;1.30;;;;;;;0.51;100.00;97029.06;4203956;28;20040;-73
2022/11/21 01:54:06;;;;;;;2.65;1.88;;;;;;;0.54;100.00;97030.28;4203337;28;20052;-73
2022/11/21 01:56:08;;;;;;;2.10;1.35;;;;;;;0.50;100.00;97021.25;4204319;28;20082;-73
2022/11/21 01:58:09;;;;;;;1.58;1.35;;;;;;;0.57;100.00;97032.28;4204454;28;20028;-73
2022/11/21 02:00:25;;;;;;;1.77;1.42;;;;;;;0.67;100.00;97017.41;4203886;28;20436;-73
2022/11/21 02:02:31;;;;;;;2.22;1.40;;;;;;;0.93;100.00;97025.88;4203385;28;20068;-73
2022/11/21 02:04:33;;;;;;;1.48;1.38;;;;;;;0.98;100.00;97019.34;4204505;28;20059;-73
2022/11/21 02:06:36;;;;;;;3.70;1.63;;;;;;;0.98;100.00;97024.81;4203702;28;20046;-73
2022/11/21 02:08:37;;;;;;;1.45;1.10;;;;;;;0.95;100.00;97023.59;4203776;28;20048;-73
2022/11/21 02:10:42;;;;;;;2.15;1.50;;;;;;;1.07;100.00;97019.97;4203319;28;20114;-73
2022/11/21 02:12:48;;;;;;;3.22;1.50;;;;;;;1.07;100.00;97022.69;4203226;28;20040;-73
2022/11/21 02:14:49;;;;;;;1.30;1.00;;;;;;;1.04;100.00;97023.41;4204168;28;20549;-73
2022/11/21 02:16:49;;;;;;;1.50;1.23;;;;;;;1.05;100.00;97020.34;4203449;28;20044;-73
2022/11/21 02:18:50;;;;;;;7.88;1.35;;;;;;;1.09;100.00;97025.88;4203819;28;20160;-73
2022/11/21 02:20:59;;;;;;;2.78;1.48;;;;;;;1.12;100.00;97028.69;4203457;28;20048;-73
2022/11/21 02:23:19;;;;;;;1.85;1.20;;;;;;;1.13;100.00;97029.47;4201786;28;20082;-73
2022/11/21 02:25:22;;;;;;;1.38;1.17;;;;;;;1.11;100.00;97037.22;4203682;28;20476;-73
2022/11/21 02:27:23;;;;;;;1.52;1.10;;;;;;;1.10;100.00;97036.44;4203690;28;20127;-73
2022/11/21 02:29:24;;;;;;;1.42;0.90;;;;;;;1.16;100.00;97025.25;4203819;28;20075;-73
2022/11/21 02:31:24;;;;;;;2.45;1.30;;;;;;;1.08;100.00;97029.75;4202450;28;20202;-73
2022/11/21 02:33:25;;;;;;;2.10;1.17;;;;;;;1.17;100.00;97043.19;4202549;28;20036;-73
2022/11/21 02:35:25;;;;;;;1.20;1.08;;;;;;;1.09;100.00;97025.88;4203555;28;20032;-73
2022/11/21 02:37:25;;;;;;;1.00;0.90;;;;;;;1.11;100.00;97035.28;4203408;28;20040;-73
2022/11/21 02:39:33;;;;;;;0.80;0.80;;;;;;;1.13;100.00;97035.72;4204104;28;20055;-73
2022/11/21 02:41:36;;;;;;;1.52;0.90;;;;;;;1.16;100.00;97044.31;4203576;28;20040;-73
2022/11/21 02:43:53;;;;;;;0.70;0.70;;;;;;;1.18;100.00;97042.06;4202994;28;20324;-73
2022/11/21 02:45:53;;;;;;;0.98;0.88;;;;;;;1.15;100.00;97042.75;4203097;28;20046;-73
2022/11/21 02:47:55;;;;;;;1.00;0.70;;;;;;;1.23;100.00;97050.75;4203253;28;20143;-73
2022/11/21 02:50:06;;;;;;;0.70;0.70;;;;;;;1.33;100.00;97049.44;4203641;28;20438;-73
2022/11/21 02:52:07;;;;;;;1.67;0.90;;;;;;;1.31;100.00;97059.88;4203257;28;20333;-73
2022/11/21 02:54:07;;;;;;;3.80;1.08;;;;;;;1.35;100.00;97049.88;4202516;28;20099;-73
2022/11/21 02:56:07;;;;;;;2.05;1.25;;;;;;;1.29;100.00;97049.34;4201629;28;20365;-73
2022/11/21 02:58:08;;;;;;;1.42;0.95;;;;;;;1.26;100.00;97054.72;4202396;28;20153;-73
2022/11/21 03:00:10;;;;;;;3.85;1.35;;;;;;;1.15;100.00;97054.44;4201507;28;20343;-73
2022/11/21 03:02:10;;;;;;;4.55;2.72;;;;;;;0.98;100.00;97052.84;4202110;28;20040;-73
2022/11/21 03:04:10;;;;;;;7.95;4.63;;;;;;;0.84;100.00;97066.88;4202386;28;20335;-73
2022/11/21 03:06:11;;;;;;;14.88;7.53;;;;;;;0.56;100.00;97066.88;4203303;28;20479;-73
2022/11/21 03:08:11;;;;;;;14.48;7.40;;;;;;;0.32;100.00;97069.69;4202941;28;20506;-73
2022/11/21 03:10:12;;;;;;;15.45;8.13;;;;;;;0.19;100.00;97071.69;4202460;28;20117;-73
2022/11/21 03:12:12;;;;;;;15.85;7.63;;;;;;;0.08;100.00;97064.31;4203292;28;20059;-73
2022/11/21 03:14:13;;;;;;;15.35;7.60;;;;;;;-0.01;100.00;97067.19;4201668;28;20482;-73
2022/11/21 03:16:13;;;;;;;12.13;6.72;;;;;;;0.01;100.00;97075.03;4202670;28;20477;-73
2022/11/21 03:18:13;;;;;;;13.50;6.88;;;;;;;-0.02;100.00;97076.47;4203502;28;20456;-73
2022/11/21 03:20:14;;;;;;;14.93;6.40;;;;;;;0.01;100.00;97080.47;4202633;28;20093;-73
2022/11/21 03:22:15;;;;;;;13.88;6.40;;;;;;;0.10;100.00;97084.63;4202849;28;20032;-73
2022/11/21 03:24:15;;;;;;;9.35;4.45;;;;;;;0.17;100.00;97089.50;4202218;28;20118;-73
2022/11/21 03:26:15;;;;;;;4.90;2.58;;;;;;;0.31;100.00;97089.88;4202847;28;20106;-73
2022/11/21 03:28:16;;;;;;;6.40;1.88;;;;;;;0.43;100.00;97092.59;4202926;28;20036;-73
2022/11/21 03:30:16;;;;;;;2.47;1.50;;;;;;;0.59;100.00;97100.03;4201943;28;20519;-73
2022/11/21 03:32:17;;;;;;;15.05;7.43;;;;;;;0.49;100.00;97107.50;4203117;28;20070;-73
2022/11/21 03:34:17;;;;;;;15.05;7.60;;;;;;;0.15;100.00;97111.56;4202286;28;20023;-73
2022/11/21 03:36:17;;;;;;;15.40;7.82;;;;;;;-0.08;100.00;97116.72;4202687;28;20441;-73
2022/11/21 03:38:18;;;;;;;14.07;8.15;;;;;;;-0.13;100.00;97105.28;4203418;28;20034;-73
2022/11/21 03:40:18;;;;;;;17.55;7.70;;;;;;;-0.11;100.00;97100.28;4202080;28;20111;-73
2022/11/21 03:42:18;;;;;;;18.65;8.60;;;;;;;-0.24;100.00;97115.03;4202509;28;20108;-73
2022/11/21 03:44:19;;;;;;;18.10;8.75;;;;;;;-0.30;100.00;97120.69;4201729;28;20068;-73
2022/11/21 03:46:19;;;;;;;15.35;8.20;;;;;;;-0.36;100.00;97127.47;4203128;28;20028;-73
2022/11/21 03:48:19;;;;;;;13.98;7.32;;;;;;;-0.46;100.00;97129.84;4202533;28;20028;-73
2022/11/21 03:50:20;;;;;;;29.00;7.85;;;;;;;-0.50;100.00;97129.72;4202198;28;20315;-73
2022/11/21 03:52:20;;;;;;;18.25;8.43;;;;;;;-0.59;100.00;97131.75;4202408;28;20162;-73
2022/11/21 03:54:21;;;;;;;20.33;9.38;;;;;;;-0.66;100.00;97145.91;4202343;28;20098;-73
2022/11/21 03:56:21;;;;;;;17.00;8.05;;;;;;;-0.67;100.00;97166.03;4202444;28;20040;-73
2022/11/21 03:58:21;;;;;;;15.77;8.02;;;;;;;-0.72;100.00;97165.47;4202655;28;20384;-73
2022/11/21 04:00:22;;;;;;;18.35;9.13;;;;;;;-0.81;100.00;97165.56;4202131;28;20703;-73
2022/11/21 04:02:22;;;;;;;18.70;8.07;;;;;;;-0.86;100.00;97165.78;4201289;28;20326;-73
2022/11/21 04:04:23;;;;;;;16.85;8.80;;;;;;;-0.92;100.00;97170.63;4202537;28;20089;-73
2022/11/21 04:06:23;;;;;;;18.52;8.93;;;;;;;-0.91;100.00;97166.78;4205234;28;20094;-73
2022/11/21 04:08:24;;;;;;;18.58;7.95;;;;;;;-0.84;100.00;97174.38;4203821;28;20658;-73
2022/11/21 04:10:25;;;;;;;16.55;8.32;;;;;;;-0.89;100.00;97180.03;4205853;28;20048;-73
2022/11/21 04:12:25;;;;;;;21.15;9.93;;;;;;;-0.95;100.00;97189.50;4205858;28;20488;-73
2022/11/21 04:14:25;;;;;;;18.20;8.65;;;;;;;-0.90;100.00;97186.59;4205431;28;20107;-73
2022/11/21 04:16:26;;;;;;;13.90;7.30;;;;;;;-0.91;100.00;97184.97;4205971;28;20075;-73
2022/11/21 04:18:26;;;;;;;18.00;8.75;;;;;;;-0.94;100.00;97194.59;4206056;28;20075;-73
2022/11/21 04:20:26;;;;;;;19.05;8.98;;;;;;;-0.93;100.00;97200.81;4205263;28;20040;-73
2022/11/21 04:22:27;;;;;;;20.45;9.20;;;;;;;-0.90;100.00;97198.25;4205284;28;20128;-73
2022/11/21 04:24:27;;;;;;;19.08;9.50;;;;;;;-0.80;100.00;97202.47;4205537;28;20182;-73
2022/11/21 04:26:27;;;;;;;18.60;9.05;;;;;;;-0.79;100.00;97211.41;4204187;28;20032;-73
2022/11/21 04:28:28;;;;;;;20.40;10.38;;;;;;;-0.79;100.00;97209.47;4205122;28;20105;-73
2022/11/21 04:30:29;;;;;;;15.60;8.02;;;;;;;-0.73;100.00;97215.50;4205289;28;20044;-73
2022/11/21 04:32:29;;;;;;;21.42;9.52;;;;;;;-0.73;100.00;97212.78;4204864;28;20439;-73
2022/11/21 04:34:29;;;;;;;16.95;9.15;;;;;;;-0.70;100.00;97215.63;4205662;28;20090;-73
2022/11/21 04:36:30;;;;;;;23.27;10.93;;;;;;;-0.76;100.00;97227.00;4205380;28;20106;-73
2022/11/21 04:38:30;;;;;;;21.52;10.95;;;;;;;-0.75;100.00;97232.09;4206370;28;20072;-73
2022/11/21 04:40:31;;;;;;;25.38;9.88;;;;;;;-0.82;100.00;97237.31;4205085;28;20139;-73
2022/11/21 04:42:31;;;;;;;21.75;11.55;;;;;;;-0.85;100.00;97235.25;4204781;28;20142;-73
2022/11/21 04:44:31;;;;;;;27.95;12.70;;;;;;;-0.92;100.00;97240.41;4204615;28;20085;-73
2022/11/21 04:46:32;;;;;;;24.33;11.80;;;;;;;-1.04;100.00;97249.31;4205133;28;20101;-73
2022/11/21 04:48:32;;;;;;;30.48;12.38;;;;;;;-1.07;100.00;97249.19;4205253;28;20097;-73
2022/11/21 04:50:32;;;;;;;24.85;10.65;;;;;;;-1.01;100.00;97248.63;4204606;28;20055;-73
2022/11/21 04:52:34;;;;;;;29.65;13.13;;;;;;;-1.05;100.00;97245.00;4204594;28;20044;-73
2022/11/21 04:54:34;;;;;;;28.00;12.70;;;;;;;-1.19;100.00;97247.19;4205222;28;20040;-73
2022/11/21 04:56:35;;;;;;;24.98;11.00;;;;;;;-1.20;100.00;97253.75;4204677;28;20108;-73
2022/11/21 04:58:36;;;;;;;28.25;12.10;;;;;;;-1.22;100.00;97256.81;4205145;28;20113;-73
2022/11/21 05:00:36;;;;;;;29.30;12.70;;;;;;;-1.23;100.00;97254.44;4204809;28;20060;-73
2022/11/21 05:02:36;;;;;;;26.52;11.98;;;;;;;-1.31;100.00;97263.41;4203816;28;20508;-73
2022/11/21 05:04:37;;;;;;;26.73;12.27;;;;;;;-1.32;100.00;97251.78;4206226;28;20166;-73
2022/11/21 05:06:38;;;;;;;25.42;11.82;;;;;;;-1.29;100.00;97258.44;4205563;28;20043;-73
2022/11/21 05:08:38;;;;;;;30.85;13.00;;;;;;;-1.31;100.00;97258.00;4205035;28;20438;-73
2022/11/21 05:13:20;;;;;;;27.77;11.63;;;;;;;-1.32;100.00;97259.91;4172231;28;20044;-73
2022/11/21 05:15:20;;;;;;;24.13;10.63;;;;;;;-1.21;100.00;97263.81;4204819;28;20052;-73
2022/11/21 05:17:21;;;;;;;21.52;10.02;;;;;;;-1.20;100.00;97270.03;4203197;28;20822;-73
2022/11/21 05:19:21;;;;;;;24.52;10.82;;;;;;;-1.18;100.00;97265.06;4204755;28;20052;-73
2022/11/21 05:21:22;;;;;;;25.23;10.63;;;;;;;-1.19;100.00;97272.41;4205225;28;20142;-73
2022/11/21 05:23:22;;;;;;;21.98;10.93;;;;;;;-1.21;100.00;97277.38;4185951;28;20296;-73
2022/11/21 05:25:22;;;;;;;21.10;9.73;;;;;;;-1.24;100.00;97274.53;4204360;28;20200;-73
2022/11/21 05:27:23;;;;;;;22.80;10.50;;;;;;;-1.18;100.00;97271.28;4204571;28;20044;-73
2022/11/21 05:29:23;;;;;;;28.75;10.95;;;;;;;-1.18;100.00;97273.22;4204474;28;20723;-73
2022/11/21 05:31:23;;;;;;;20.73;9.90;;;;;;;-1.16;100.00;97287.22;4204642;28;20040;-73
2022/11/21 05:33:24;;;;;;;19.90;10.45;;;;;;;-1.19;100.00;97285.19;4203935;28;20063;-73
2022/11/21 05:35:24;;;;;;;20.73;9.38;;;;;;;-1.13;100.00;97292.81;4204556;28;20349;-73
2022/11/21 05:37:24;;;;;;;24.10;9.88;;;;;;;-1.19;100.00;97298.75;4203955;28;20032;-73
2022/11/21 05:39:26;;;;;;;21.15;9.88;;;;;;;-1.21;100.00;97295.59;4204222;28;20463;-73
2022/11/21 05:41:26;;;;;;;21.65;9.80;;;;;;;-1.17;100.00;97294.59;4203918;28;20048;-73
2022/11/21 05:43:44;;;;;;;19.70;9.40;;;;;;;-1.22;100.00;97291.28;4203833;28;20134;-73
2022/11/21 05:45:48;;;;;;;21.73;10.63;;;;;;;-1.22;100.00;97297.50;4203209;28;20062;-73
2022/11/21 05:47:48;;;;;;;21.35;9.48;;;;;;;-1.13;100.00;97303.66;4204260;28;20040;-73
2022/11/21 05:49:48;;;;;;;19.05;9.68;;;;;;;-1.23;100.00;97300.56;4203996;28;20071;-73
2022/11/21 05:51:48;;;;;;;21.58;9.30;;;;;;;-1.23;100.00;97306.00;4204369;28;20084;-73
2022/11/21 05:53:49;;;;;;;18.27;9.10;;;;;;;-1.26;100.00;97302.00;4203619;28;20086;-73
2022/11/21 05:55:49;;;;;;;19.98;8.98;;;;;;;-1.25;100.00;97309.00;4149698;27;20096;-73
2022/11/21 05:57:50;;;;;;;17.90;8.88;;;;;;;-1.15;100.00;97319.50;4211341;27;20040;-73
2022/11/21 05:59:50;;;;;;;18.55;9.60;;;;;;;-1.18;100.00;97317.44;4203406;28;20044;-73
2022/11/21 06:04:09;;;;;;;16.50;8.48;;;;;;;-1.21;100.00;97326.25;4203284;28;20046;-73
2022/11/21 06:06:16;;;;;;;16.15;8.32;;;;;;;-1.23;100.00;97325.00;4204310;28;20024;-73
2022/11/21 06:08:16;;;;;;;20.75;9.23;;;;;;;-1.23;100.00;97320.34;4204332;28;20519;-73
2022/11/21 06:10:16;;;;;;;14.10;7.93;;;;;;;-1.21;100.00;97326.25;4202934;28;20090;-73
2022/11/21 06:12:17;;;;;;;18.60;8.57;;;;;;;-1.19;100.00;97328.63;4203707;28;20024;-73
2022/11/21 06:14:17;;;;;;;15.25;8.18;;;;;;;-1.19;100.00;97334.03;4203752;28;20024;-73
2022/11/21 06:16:18;;;;;;;16.80;8.80;;;;;;;-1.21;100.00;97339.81;4203795;28;20039;-73
2022/11/21 06:18:20;;;;;;;20.88;9.13;;;;;;;-1.23;100.00;97333.91;4203195;28;20028;-73
2022/11/21 06:20:20;;;;;;;17.90;9.10;;;;;;;-1.17;100.00;97339.94;4202138;28;20034;-73
2022/11/21 06:22:20;;;;;;;18.65;8.45;;;;;;;-1.17;100.00;97340.72;4201777;28;20134;-73
2022/11/21 06:24:21;;;;;;;18.73;8.07;;;;;;;-1.14;100.00;97340.09;4202300;28;20072;-73
2022/11/21 06:26:23;;;;;;;13.65;7.00;;;;;;;-1.10;100.00;97342.13;4203790;28;20507;-73
2022/11/21 06:28:25;;;;;;;13.75;7.20;;;;;;;-1.06;100.00;97351.22;4203753;28;20027;-73
2022/11/21 06:30:25;;;;;;;10.17;5.77;;;;;;;-1.02;100.00;97344.00;4202866;28;20048;-73
2022/11/21 06:32:26;;;;;;;10.23;5.90;;;;;;;-1.00;100.00;97339.81;4202503;28;20820;-73
2022/11/21 06:34:26;;;;;;;10.70;7.00;;;;;;;-0.95;100.00;97344.28;4203633;28;20088;-73
2022/11/21 06:36:27;;;;;;;10.50;6.50;;;;;;;-0.90;100.00;97344.88;4203642;28;20123;-73
2022/11/21 06:38:27;;;;;;;10.45;6.03;;;;;;;-0.85;100.00;97341.94;4203289;28;20068;-73
2022/11/21 06:40:27;;;;;;;10.05;5.88;;;;;;;-0.82;100.00;97353.28;4203710;28;20040;-73
2022/11/21 06:42:28;;;;;;;10.13;5.97;;;;;;;-0.72;100.00;97350.97;4203143;28;20036;-73
2022/11/21 06:44:28;;;;;;;12.52;6.70;;;;;;;-0.68;100.00;97354.59;4203671;28;20071;-73
2022/11/21 06:46:29;;;;;;;9.65;5.15;;;;;;;-0.69;100.00;97363.09;4203584;28;20050;-72
2022/11/21 06:48:31;;;;;;;9.00;5.57;;;;;;;-0.70;100.00;97366.94;4203216;28;20570;-72
2022/11/21 06:50:31;;;;;;;9.30;5.85;;;;;;;-0.67;100.00;97364.34;4203180;28;20525;-72
2022/11/21 06:52:32;;;;;;;7.05;4.18;;;;;;;-0.65;100.00;97364.81;4202391;28;20044;-72
2022/11/21 06:54:33;;;;;;;9.25;5.88;;;;;;;-0.64;100.00;97360.97;4203328;28;20148;-73
2022/11/21 06:56:33;;;;;;;7.13;4.65;;;;;;;-0.55;100.00;97362.81;4203403;28;20138;-72
2022/11/21 06:58:33;;;;;;;7.78;5.03;;;;;;;-0.58;100.00;97361.53;4203208;28;20043;-73
2022/11/21 07:00:34;;;;;;;10.98;5.90;;;;;;;-0.55;100.00;97362.81;4203029;28;20040;-72
2022/11/21 07:02:34;;;;;;;8.98;5.78;;;;;;;-0.55;100.00;97360.91;4202718;28;20482;-73
2022/11/21 07:04:34;;;;;;;7.70;4.97;;;;;;;-0.52;100.00;97378.44;4203737;28;20420;-72
2022/11/21 07:06:35;;;;;;;11.43;7.78;;;;;;;-0.54;100.00;97372.56;4203002;28;20480;-73
2022/11/21 07:08:35;;;;;;;11.48;8.00;;;;;;;-0.58;100.00;97375.97;4202956;28;20036;-72
2022/11/21 07:10:36;;;;;;;10.90;8.23;;;;;;;-0.58;100.00;97380.56;4203074;28;20047;-72
2022/11/21 07:14:55;;;;;;;10.10;6.72;;;;;;;-0.53;100.00;97383.09;4202821;28;20678;-73
2022/11/21 07:16:55;;;;;;;8.57;6.40;;;;;;;-0.51;100.00;97374.59;4202799;28;20028;-72
2022/11/21 07:18:59;;;;;;;7.32;4.82;;;;;;;-0.50;100.00;97384.34;4203060;28;20046;-72
2022/11/21 07:21:01;;;;;;;9.15;6.30;;;;;;;-0.53;100.00;97385.81;4202835;28;20076;-73
2022/11/21 07:23:01;;;;;;;8.63;6.03;;;;;;;-0.46;100.00;97396.16;4202083;28;20134;-73
2022/11/21 07:25:02;;;;;;;7.10;4.97;;;;;;;-0.40;100.00;97394.84;4202857;28;20051;-73
2022/11/21 07:27:03;;;;;;;8.48;5.43;;;;;;;-0.40;100.00;97400.25;4202928;28;20070;-72
2022/11/21 07:29:03;;;;;;;8.23;5.47;;;;;;;-0.41;100.00;97395.97;4202783;28;20048;-73
2022/11/21 07:31:03;;;;;;;7.97;5.63;;;;;;;-0.41;100.00;97395.97;4202986;28;20051;-73
2022/11/21 07:33:05;;;;;;;7.32;5.05;;;;;;;-0.45;100.00;97392.31;4201943;28;20075;-73
2022/11/21 07:35:07;;;;;;;9.00;5.55;;;;;;;-0.46;100.00;97391.50;4202719;28;20614;-73
2022/11/21 07:37:07;;;;;;;9.52;6.10;;;;;;;-0.49;100.00;97389.47;4202872;28;20044;-73
2022/11/21 07:39:07;;;;;;;10.70;6.93;;;;;;;-0.54;100.00;97389.66;4203457;28;20040;-73
2022/11/21 07:41:08;;;;;;;13.50;7.35;;;;;;;-0.58;100.00;97381.38;4202206;28;20115;-73
2022/11/21 07:43:10;;;;;;;14.13;7.28;;;;;;;-0.63;100.00;97388.94;4201876;28;20051;-73
2022/11/21 07:45:11;;;;;;;13.68;7.45;;;;;;;-0.68;100.00;97384.47;4203085;28;20044;-73
2022/11/21 07:47:11;;;;;;;14.30;7.78;;;;;;;-0.70;100.00;97391.38;4202524;28;20532;-73
2022/11/21 07:49:12;;;;;;;13.27;7.65;;;;;;;-0.71;100.00;97385.16;4202806;28;20052;-72
2022/11/21 07:51:12;;;;;;;12.90;7.05;;;;;;;-0.70;100.00;97400.31;4202938;28;20134;-73
2022/11/21 07:53:12;;;;;;;15.55;7.25;;;;;;;-0.71;100.00;97387.06;4201811;28;20392;-73
2022/11/21 07:55:13;;;;;;;11.95;7.45;;;;;;;-0.67;100.00;97393.41;4202532;28;20071;-73
2022/11/21 07:57:13;;;;;;;14.13;8.13;;;;;;;-0.67;100.00;97388.00;4202911;28;20369;-73
2022/11/21 07:59:13;;;;;;;13.48;7.53;;;;;;;-0.68;100.00;97381.75;4202376;28;20128;-73
2022/11/21 08:01:14;;;;;;;14.23;7.55;;;;;;;-0.66;100.00;97373.31;4202203;28;20514;-73
2022/11/21 08:03:14;;;;;;;14.38;7.82;;;;;;;-0.65;100.00;97378.41;4202392;28;20054;-73
2022/11/21 08:05:14;;;;;;;12.45;7.45;;;;;;;-0.63;100.00;97380.78;4202409;28;20044;-73
2022/11/21 08:07:17;;;;;;;13.48;8.27;;;;;;;-0.59;100.00;97385.19;4202517;28;20083;-73
2022/11/21 08:09:17;;;;;;;17.10;9.80;;;;;;;-0.60;100.00;97380.09;4184505;28;20041;-73
2022/11/21 08:11:17;;;;;;;15.60;9.55;;;;;;;-0.60;100.00;97385.53;4202249;28;20113;-73
2022/11/21 08:13:18;;;;;;;16.70;8.70;;;;;;;-0.58;100.00;97386.81;4201354;28;20044;-73
2022/11/21 08:15:18;;;;;;;13.35;7.30;;;;;;;-0.58;100.00;97384.09;4202663;28;20445;-73
2022/11/21 08:17:18;;;;;;;11.95;6.88;;;;;;;-0.57;100.00;97391.13;4202868;28;20075;-73
2022/11/21 08:19:18;;;;;;;13.68;8.15;;;;;;;-0.59;100.00;97393.34;4202477;28;20456;-73
2022/11/21 08:21:19;;;;;;;15.48;8.18;;;;;;;-0.60;100.00;97396.41;4202683;28;20046;-73
2022/11/21 08:23:19;;;;;;;15.15;9.85;;;;;;;-0.59;100.00;97396.06;4201887;28;20392;-73
2022/11/21 08:25:19;;;;;;;15.10;8.63;;;;;;;-0.60;100.00;97390.97;4202192;28;20032;-73
2022/11/21 08:27:20;;;;;;;14.73;8.75;;;;;;;-0.60;100.00;97399.91;4202721;28;20044;-73
2022/11/21 08:29:21;;;;;;;13.88;8.25;;;;;;;-0.57;100.00;97401.19;4202184;28;20029;-73
2022/11/21 08:31:21;;;;;;;14.05;8.65;;;;;;;-0.54;100.00;97397.00;4202724;28;20044;-73
2022/11/21 08:33:22;;;;;;;15.45;8.50;;;;;;;-0.52;100.00;97397.47;4201626;28;20042;-73
2022/11/21 08:35:22;;;;;;;16.55;8.80;;;;;;;-0.47;100.00;97405.44;4201807;28;20051;-73
2022/11/21 08:37:22;;;;;;;14.40;8.85;;;;;;;-0.46;100.00;97405.09;4202993;28;20497;-73
2022/11/21 08:39:24;;;;;;;13.25;8.38;;;;;;;-0.43;100.00;97406.34;4202237;28;20118;-73
2022/11/21 08:43:44;;;;;;;13.35;8.43;;;;;;;-0.35;100.00;97410.91;4201725;28;20051;-73
2022/11/21 08:45:44;;;;;;;12.80;7.38;;;;;;;-0.33;100.00;97419.56;4202134;28;20516;-73
2022/11/21 08:47:44;;;;;;;12.23;7.20;;;;;;;-0.31;100.00;97406.41;4202190;28;20044;-73
2022/11/21 08:49:45;;;;;;;12.73;7.72;;;;;;;-0.31;100.00;97411.84;4202005;28;20040;-73
2022/11/21 08:51:48;;;;;;;12.30;7.05;;;;;;;-0.30;100.00;97416.97;4203816;28;20042;-73
2022/11/21 08:53:49;;;;;;;10.88;6.93;;;;;;;-0.29;100.00;97415.03;4204583;28;20772;-73
2022/11/21 08:55:49;;;;;;;11.40;6.95;;;;;;;-0.29;100.00;97410.38;4205077;28;20028;-73
2022/11/21 08:57:50;;;;;;;10.88;7.18;;;;;;;-0.27;100.00;97431.78;4205099;28;20044;-73
2022/11/21 08:59:50;;;;;;;9.18;6.63;;;;;;;-0.30;100.00;97419.69;4205253;28;20080;-73
2022/11/21 09:01:51;;;;;;;9.95;6.47;;;;;;;-0.28;100.00;97420.13;4204918;28;20145;-72
2022/11/21 09:03:52;;;;;;;12.13;6.72;;;;;;;-0.24;100.00;97424.91;4204049;28;20040;-73
2022/11/21 09:05:55;;;;;;;11.30;6.47;;;;;;;-0.22;100.00;97419.94;4205156;28;20051;-73
2022/11/21 09:07:56;;;;;;;11.88;6.82;;;;;;;-0.22;100.00;97422.66;4204719;28;20162;-73
2022/11/21 09:09:56;;;;;;;9.55;6.40;;;;;;;-0.22;100.00;97425.38;4204981;28;20100;-73
2022/11/21 09:11:57;;;;;;;10.93;6.45;;;;;;;-0.21;100.00;97429.69;4204962;28;20040;-73
2022/11/21 09:18:36;;;;;;;11.40;6.53;;;;;;;-0.24;100.00;97436.59;4204811;28;20388;-73
2022/11/21 09:20:40;;;;;;;11.73;6.80;;;;;;;-0.22;100.00;97430.81;4204659;28;20339;-73
2022/11/21 09:22:40;;;;;;;16.98;9.45;;;;;;;-0.22;100.00;97445.19;4204124;28;20048;-73
2022/11/21 09:24:40;;;;;;;32.70;17.13;;;;;;;-0.22;100.00;97445.19;4204379;28;20048;-73
2022/11/21 09:26:41;;;;;;;18.92;9.55;;;;;;;-0.22;100.00;97437.03;4204877;28;20126;-73
2022/11/21 09:28:41;;;;;;;14.45;7.68;;;;;;;-0.23;100.00;97440.91;4204585;28;20445;-73
2022/11/21 09:30:42;;;;;;;15.00;7.90;;;;;;;-0.24;100.00;97441.22;4204664;28;20436;-73
2022/11/21 09:32:42;;;;;;;15.45;9.20;;;;;;;-0.24;100.00;97444.75;4203594;28;20464;-73